createdAt,value
2023-02-20T00:01:25.842Z,46.69
2023-02-20T00:03:55.078Z,46.61
2023-02-20T00:06:22.973Z,46.77
2023-02-20T00:08:50.863Z,46.71
2023-02-20T00:11:19.062Z,46.99
2023-02-20T00:13:47.281Z,46.90
2023-02-20T00:16:15.394Z,47.03
2023-02-20T00:18:43.193Z,46.60
2023-02-20T00:21:12.504Z,46.95
2023-02-20T00:23:40.559Z,47.09
2023-02-20T00:26:11.364Z,47.04
2023-02-20T00:28:39.994Z,47.08
2023-02-20T00:31:08.314Z,47.14
2023-02-20T00:33:37.855Z,46.95
2023-02-20T00:36:06.634Z,47.29
2023-02-20T00:38:35.849Z,46.83
2023-02-20T00:41:03.635Z,46.99
2023-02-20T00:43:31.671Z,47.26
2023-02-20T00:45:59.476Z,47.23
2023-02-20T00:48:27.317Z,47.23
2023-02-20T00:51:15.059Z,47.32
2023-02-20T00:53:44.280Z,47.60
2023-02-20T00:56:12.313Z,47.10
2023-02-20T00:58:41.216Z,47.67
2023-02-20T01:01:09.131Z,47.33
2023-02-20T01:03:37.116Z,47.23
2023-02-20T01:06:05.354Z,47.32
2023-02-20T01:08:33.186Z,47.51
2023-02-20T01:11:02.418Z,47.53
2023-02-20T01:13:30.270Z,47.79
2023-02-20T01:15:58.187Z,47.82
2023-02-20T01:18:26.088Z,47.73
2023-02-20T01:20:53.886Z,47.67
2023-02-20T01:23:22.849Z,47.68
2023-02-20T01:25:50.673Z,47.70
2023-02-20T01:28:19.892Z,47.92
2023-02-20T01:30:47.642Z,47.75
2023-02-20T01:33:15.466Z,47.64
2023-02-20T01:35:43.271Z,48.07
2023-02-20T01:38:11.085Z,47.91
2023-02-20T01:40:38.857Z,48.08
2023-02-20T01:43:06.669Z,47.80
2023-02-20T01:45:38.125Z,48.14
2023-02-20T01:48:06.495Z,47.72
2023-02-20T01:50:38.305Z,47.71
2023-02-20T01:53:09.733Z,48.03
2023-02-20T01:55:40.842Z,47.99
2023-02-20T01:58:13.447Z,48.12
2023-02-20T02:00:43.087Z,48.23
2023-02-20T02:03:13.467Z,48.29
2023-02-20T02:05:44.912Z,47.88
2023-02-20T02:08:16.160Z,47.88
2023-02-20T02:10:51.334Z,48.05
2023-02-20T02:13:19.621Z,47.86
2023-02-20T02:15:52.754Z,47.75
2023-02-20T02:18:45.848Z,48.06
2023-02-20T02:21:58.730Z,48.03
2023-02-20T02:25:10.665Z,47.94
2023-02-20T02:28:17.923Z,47.99
2023-02-20T02:31:27.041Z,47.85
2023-02-20T02:34:39.808Z,48.06
2023-02-20T02:37:19.130Z,47.84
2023-02-20T02:39:58.223Z,47.83
2023-02-20T02:42:36.503Z,47.66
2023-02-20T02:45:12.444Z,47.93
2023-02-20T02:47:47.264Z,47.60
2023-02-20T02:50:19.734Z,47.47
2023-02-20T02:52:50.832Z,47.86
2023-02-20T02:55:21.317Z,47.76
2023-02-20T02:57:49.329Z,47.70
2023-02-20T03:00:21.594Z,47.65
2023-02-20T03:02:56.077Z,47.54
2023-02-20T03:05:40.442Z,47.77
2023-02-20T03:08:22.162Z,47.68
2023-02-20T03:10:54.670Z,47.84
2023-02-20T03:13:45.155Z,47.92
2023-02-20T03:16:17.104Z,47.89
2023-02-20T03:18:47.849Z,47.93
2023-02-20T03:21:20.494Z,47.53
2023-02-20T03:23:56.438Z,47.66
2023-02-20T03:26:31.358Z,47.80
2023-02-20T03:29:03.913Z,47.39
2023-02-20T03:31:36.933Z,47.98
2023-02-20T03:34:26.481Z,47.68
2023-02-20T03:37:18.331Z,47.59
2023-02-20T03:40:09.918Z,47.80
2023-02-20T03:43:00.449Z,47.57
2023-02-20T03:45:34.443Z,47.73
2023-02-20T03:48:08.567Z,47.80
2023-02-20T03:50:36.612Z,47.82
2023-02-20T03:53:04.838Z,47.66
2023-02-20T03:55:34.450Z,47.91
2023-02-20T03:58:10.518Z,47.94
2023-02-20T04:00:44.621Z,47.63
2023-02-20T04:03:17.242Z,47.62
2023-02-20T04:05:52.441Z,47.67
2023-02-20T04:08:31.327Z,47.55
2023-02-20T04:11:04.788Z,47.61
2023-02-20T04:13:34.916Z,47.90
2023-02-20T04:16:03.952Z,47.77
2023-02-20T04:18:32.910Z,47.75
2023-02-20T04:21:06.967Z,47.66
2023-02-20T04:23:44.022Z,47.80
2023-02-20T04:26:17.023Z,47.98
2023-02-20T04:28:47.222Z,47.67
2023-02-20T04:31:18.729Z,47.66
2023-02-20T04:33:48.223Z,47.81
2023-02-20T04:36:23.086Z,48.01
2023-02-20T04:38:52.240Z,47.80
2023-02-20T04:41:26.280Z,48.08
2023-02-20T04:44:15.017Z,47.80
2023-02-20T04:46:43.395Z,47.83
2023-02-20T04:49:11.644Z,48.17
2023-02-20T04:51:40.973Z,47.81
2023-02-20T04:54:09.263Z,48.25
2023-02-20T04:56:38.436Z,47.82
2023-02-20T04:59:06.818Z,47.94
2023-02-20T05:01:34.797Z,48.13
2023-02-20T05:04:02.555Z,48.14
2023-02-20T05:06:30.532Z,47.96
2023-02-20T05:08:59.061Z,48.11
2023-02-20T05:11:26.862Z,47.96
2023-02-20T05:13:56.106Z,47.96
2023-02-20T05:16:23.838Z,48.10
2023-02-20T05:18:51.547Z,48.06
2023-02-20T05:21:36.732Z,47.95
2023-02-20T05:24:06.891Z,48.06
2023-02-20T05:26:35.748Z,47.76
2023-02-20T05:29:05.026Z,48.06
2023-02-20T05:31:32.880Z,48.41
2023-02-20T05:34:00.683Z,48.01
2023-02-20T05:36:28.606Z,47.90
2023-02-20T05:38:56.308Z,48.03
2023-02-20T05:41:24.100Z,47.78
2023-02-20T05:43:51.869Z,48.00
2023-02-20T05:46:21.253Z,47.63
2023-02-20T05:48:50.092Z,47.91
2023-02-20T05:51:22.731Z,47.87
2023-02-20T05:53:50.481Z,47.76
2023-02-20T05:56:18.432Z,48.03
2023-02-20T05:58:47.009Z,48.02
2023-02-20T06:01:19.306Z,47.82
2023-02-20T06:03:48.810Z,47.72
2023-02-20T06:06:17.109Z,47.86
2023-02-20T06:08:45.551Z,48.02
2023-02-20T06:11:14.624Z,47.78
2023-02-20T06:13:42.625Z,48.05
2023-02-20T06:16:11.420Z,47.92
2023-02-20T06:18:40.432Z,47.90
2023-02-20T06:21:10.430Z,48.17
2023-02-20T06:23:38.636Z,47.90
2023-02-20T06:26:07.245Z,47.99
2023-02-20T06:28:35.678Z,48.09
2023-02-20T06:31:03.549Z,47.67
2023-02-20T06:33:31.587Z,47.59
2023-02-20T06:35:59.409Z,47.64
2023-02-20T06:38:28.794Z,47.82
2023-02-20T06:40:56.762Z,47.85
2023-02-20T06:43:24.612Z,47.63
2023-02-20T06:45:52.337Z,47.81
2023-02-20T06:48:20.166Z,48.02
2023-02-20T06:50:47.960Z,48.22
2023-02-20T06:53:15.757Z,47.94
2023-02-20T06:55:44.971Z,47.72
2023-02-20T06:58:12.745Z,47.89
2023-02-20T07:00:40.557Z,47.84
2023-02-20T07:03:08.426Z,47.75
2023-02-20T07:05:36.296Z,47.97
2023-02-20T07:08:04.093Z,48.10
2023-02-20T07:10:31.961Z,47.86
2023-02-20T07:13:03.149Z,47.77
2023-02-20T07:15:30.918Z,47.92
2023-02-20T07:17:58.704Z,47.86
2023-02-20T07:20:26.523Z,47.80
2023-02-20T07:22:54.999Z,47.76
2023-02-20T07:25:22.928Z,48.24
2023-02-20T07:27:51.021Z,48.09
2023-02-20T07:30:20.458Z,48.16
2023-02-20T07:32:48.186Z,48.01
2023-02-20T07:35:15.949Z,48.01
2023-02-20T07:37:44.497Z,47.98
2023-02-20T07:40:13.731Z,48.34
2023-02-20T07:42:41.544Z,47.88
2023-02-20T07:45:23.788Z,48.06
2023-02-20T07:47:51.554Z,48.17
2023-02-20T07:50:19.670Z,48.33
2023-02-20T07:52:47.979Z,48.11
2023-02-20T07:55:16.479Z,48.13
2023-02-20T07:57:47.935Z,48.21
2023-02-20T08:00:17.504Z,48.09
2023-02-20T08:02:46.919Z,47.89
2023-02-20T08:05:15.004Z,48.02
2023-02-20T08:07:46.477Z,48.23
2023-02-20T08:10:15.360Z,48.20
2023-02-20T08:12:43.208Z,48.14
2023-02-20T08:15:12.128Z,47.91
2023-02-20T08:17:46.388Z,48.02
2023-02-20T08:20:17.812Z,47.65
2023-02-20T08:22:46.941Z,48.02
2023-02-20T08:25:15.725Z,48.06
2023-02-20T08:27:43.640Z,48.17
2023-02-20T08:30:14.258Z,47.91
2023-02-20T08:32:42.159Z,48.02
2023-02-20T08:35:10.124Z,48.22
2023-02-20T08:37:40.419Z,48.32
2023-02-20T08:40:09.533Z,47.99
2023-02-20T08:42:37.260Z,47.81
2023-02-20T08:45:06.261Z,48.12
2023-02-20T08:47:34.609Z,48.21
2023-02-20T08:50:02.465Z,47.98
2023-02-20T08:52:30.270Z,48.27
2023-02-20T08:54:59.375Z,48.16
2023-02-20T08:57:27.135Z,48.15
2023-02-20T08:59:54.909Z,48.00
2023-02-20T09:02:28.591Z,48.29
2023-02-20T09:04:57.687Z,48.13
2023-02-20T09:07:26.274Z,48.15
2023-02-20T09:09:54.043Z,48.04
2023-02-20T09:12:23.380Z,47.95
2023-02-20T09:14:51.195Z,48.21
2023-02-20T09:17:18.980Z,48.29
2023-02-20T09:19:46.796Z,48.42
2023-02-20T09:22:16.344Z,48.02
2023-02-20T09:24:44.108Z,48.24
2023-02-20T09:27:11.905Z,48.24
2023-02-20T09:29:42.931Z,48.26
2023-02-20T09:32:11.464Z,48.29
2023-02-20T09:34:39.372Z,48.21
2023-02-20T09:37:08.441Z,48.14
2023-02-20T09:39:36.275Z,48.23
2023-02-20T09:42:23.073Z,48.16
2023-02-20T09:45:03.991Z,48.18
2023-02-20T09:47:43.353Z,48.33
2023-02-20T09:50:16.052Z,48.26
2023-02-20T09:52:45.999Z,48.48
2023-02-20T09:55:17.948Z,48.43
2023-02-20T09:57:49.746Z,48.22
2023-02-20T10:00:26.135Z,48.48
2023-02-20T10:03:02.862Z,48.61
2023-02-20T10:05:32.060Z,48.75
2023-02-20T10:07:59.817Z,48.46
2023-02-20T10:10:29.636Z,48.43
2023-02-20T10:13:13.514Z,48.27
2023-02-20T10:15:52.797Z,48.44
2023-02-20T10:18:31.040Z,48.36
2023-02-20T10:21:06.740Z,48.33
2023-02-20T10:23:42.288Z,48.47
2023-02-20T10:26:14.396Z,48.34
2023-02-20T10:28:42.495Z,48.55
2023-02-20T10:31:27.057Z,48.12
2023-02-20T10:34:01.112Z,48.28
2023-02-20T10:36:37.487Z,48.63
2023-02-20T10:39:09.339Z,48.70
2023-02-20T10:41:44.227Z,48.59
2023-02-20T10:44:18.915Z,48.60
2023-02-20T10:46:57.348Z,48.54
2023-02-20T10:49:31.826Z,48.60
2023-02-20T10:52:01.811Z,48.77
2023-02-20T10:54:36.311Z,48.31
2023-02-20T10:57:09.629Z,48.81
2023-02-20T10:59:43.490Z,48.58
2023-02-20T11:02:19.224Z,48.41
2023-02-20T11:04:53.314Z,48.57
2023-02-20T11:07:22.376Z,48.59
2023-02-20T11:09:50.631Z,48.72
2023-02-20T11:12:26.917Z,48.52
2023-02-20T11:14:57.336Z,48.55
2023-02-20T11:17:28.639Z,48.55
2023-02-20T11:19:59.148Z,48.49
2023-02-20T11:22:41.386Z,48.12
2023-02-20T11:25:17.366Z,48.62
2023-02-20T11:27:48.122Z,48.47
2023-02-20T11:30:27.973Z,48.45
2023-02-20T11:33:05.013Z,48.65
2023-02-20T11:35:38.106Z,48.64
2023-02-20T11:38:31.007Z,48.84
2023-02-20T11:41:29.045Z,48.39
2023-02-20T11:44:21.036Z,48.63
2023-02-20T11:46:49.700Z,48.80
2023-02-20T11:49:28.203Z,48.34
2023-02-20T11:52:09.599Z,48.43
2023-02-20T11:54:37.398Z,48.24
2023-02-20T11:57:18.572Z,48.53
2023-02-20T11:59:48.264Z,48.55
2023-02-20T12:02:34.005Z,48.30
2023-02-20T12:05:08.561Z,48.46
2023-02-20T12:07:39.458Z,48.27
2023-02-20T12:10:24.955Z,48.03
2023-02-20T12:12:54.075Z,48.34
2023-02-20T12:15:24.933Z,48.50
2023-02-20T12:18:19.257Z,48.30
2023-02-20T12:20:54.424Z,48.26
2023-02-20T12:23:33.652Z,48.27
2023-02-20T12:26:15.823Z,48.24
2023-02-20T12:28:54.201Z,48.29
2023-02-20T12:31:34.611Z,48.31
2023-02-20T12:34:14.895Z,48.47
2023-02-20T12:36:51.853Z,48.42
2023-02-20T12:39:29.992Z,48.60
2023-02-20T12:42:08.830Z,48.14
2023-02-20T12:44:58.466Z,48.25
2023-02-20T12:47:31.486Z,48.66
2023-02-20T12:50:34.792Z,48.23
2023-02-20T12:53:14.708Z,48.09
2023-02-20T12:55:51.285Z,48.12
2023-02-20T12:58:33.172Z,48.57
2023-02-20T13:01:03.572Z,48.42
2023-02-20T13:03:45.290Z,48.21
2023-02-20T13:06:16.333Z,48.37
2023-02-20T13:09:00.816Z,48.32
2023-02-20T13:11:34.301Z,48.27
2023-02-20T13:14:10.598Z,48.62
2023-02-20T13:16:43.140Z,48.56
2023-02-20T13:19:22.500Z,48.41
2023-02-20T13:21:50.482Z,48.60
2023-02-20T13:24:34.642Z,48.69
2023-02-20T13:27:07.787Z,48.60
2023-02-20T13:29:37.596Z,48.81
2023-02-20T13:32:25.013Z,48.81
2023-02-20T13:34:53.207Z,48.65
2023-02-20T13:37:53.406Z,48.87
2023-02-20T13:40:39.421Z,48.85
2023-02-20T13:43:29.382Z,49.07
2023-02-20T13:46:22.701Z,48.97
2023-02-20T13:48:53.033Z,48.74
2023-02-20T13:51:40.026Z,49.13
2023-02-20T13:54:23.405Z,48.93
2023-02-20T13:56:59.496Z,49.11
2023-02-20T13:59:29.623Z,49.21
2023-02-20T14:02:17.923Z,49.39
2023-02-20T14:04:56.929Z,49.54
2023-02-20T14:07:34.574Z,49.60
2023-02-20T14:10:05.059Z,49.12
2023-02-20T14:12:35.758Z,49.17
2023-02-20T14:15:07.436Z,49.53
2023-02-20T14:17:39.578Z,49.24
2023-02-20T14:20:20.392Z,49.76
2023-02-20T14:22:48.327Z,49.59
2023-02-20T14:25:23.373Z,49.63
2023-02-20T14:27:52.902Z,49.39
2023-02-20T14:30:23.489Z,49.31
2023-02-20T14:32:55.365Z,49.37
2023-02-20T14:35:45.863Z,49.45
2023-02-20T14:38:41.637Z,49.76
2023-02-20T14:41:14.732Z,49.59
2023-02-20T14:43:44.018Z,49.21
2023-02-20T14:46:21.798Z,49.13
2023-02-20T14:48:49.822Z,49.60
2023-02-20T14:51:23.203Z,49.61
2023-02-20T14:53:59.839Z,49.37
2023-02-20T14:56:28.306Z,49.41
2023-02-20T14:58:57.360Z,49.46
2023-02-20T15:01:39.193Z,49.50
2023-02-20T15:04:13.021Z,49.58
2023-02-20T15:06:43.342Z,49.54
2023-02-20T15:09:21.849Z,49.67
2023-02-20T15:11:53.383Z,49.27
2023-02-20T15:14:25.237Z,49.76
2023-02-20T15:17:09.991Z,49.69
2023-02-20T15:19:40.598Z,49.59
2023-02-20T15:22:23.853Z,49.60
2023-02-20T15:24:51.713Z,49.52
2023-02-20T15:27:23.294Z,49.67
2023-02-20T15:30:16.613Z,49.68
2023-02-20T15:32:53.007Z,49.86
2023-02-20T15:35:26.891Z,49.96
2023-02-20T15:37:56.246Z,49.58
2023-02-20T15:40:26.133Z,49.73
2023-02-20T15:42:57.624Z,49.57
2023-02-20T15:45:28.911Z,49.66
2023-02-20T15:47:57.920Z,49.64
2023-02-20T15:50:27.205Z,49.79
2023-02-20T15:52:55.906Z,49.38
2023-02-20T15:55:25.334Z,49.53
2023-02-20T15:57:57.028Z,49.98
2023-02-20T16:00:32.747Z,49.82
2023-02-20T16:03:01.948Z,49.50
2023-02-20T16:05:30.140Z,49.92
2023-02-20T16:07:58.136Z,49.65
2023-02-20T16:10:25.975Z,49.97
2023-02-20T16:12:55.983Z,49.97
2023-02-20T16:15:25.256Z,49.80
2023-02-20T16:17:55.296Z,49.60
2023-02-20T16:20:25.826Z,49.77
2023-02-20T16:22:53.719Z,49.61
2023-02-20T16:25:23.653Z,49.85
2023-02-20T16:27:54.354Z,49.37
2023-02-20T16:30:33.222Z,49.58
2023-02-20T16:33:04.231Z,49.49
2023-02-20T16:35:31.941Z,49.57
2023-02-20T16:38:00.160Z,49.56
2023-02-20T16:40:27.941Z,49.49
2023-02-20T16:42:55.769Z,49.55
2023-02-20T16:45:23.647Z,49.61
2023-02-20T16:47:52.948Z,49.75
2023-02-20T16:50:25.809Z,49.44
2023-02-20T16:52:55.436Z,49.89
2023-02-20T16:55:25.501Z,49.59
2023-02-20T16:57:54.641Z,49.45
2023-02-20T17:00:25.451Z,49.67
2023-02-20T17:02:53.920Z,49.58
2023-02-20T17:05:25.431Z,49.92
2023-02-20T17:07:53.192Z,49.92
2023-02-20T17:10:21.486Z,49.68
2023-02-20T17:12:49.423Z,49.46
2023-02-20T17:15:20.197Z,49.57
2023-02-20T17:17:48.385Z,49.75
2023-02-20T17:20:18.513Z,49.54
2023-02-20T17:23:02.632Z,49.71
2023-02-20T17:25:33.333Z,49.40
2023-02-20T17:28:01.092Z,49.96
2023-02-20T17:30:29.037Z,49.77
2023-02-20T17:32:56.889Z,49.84
2023-02-20T17:35:24.692Z,49.55
2023-02-20T17:37:53.853Z,49.67
2023-02-20T17:40:21.626Z,49.82
2023-02-20T17:42:49.532Z,49.59
2023-02-20T17:45:17.658Z,49.53
2023-02-20T17:47:45.725Z,49.80
2023-02-20T17:50:13.586Z,49.52
2023-02-20T17:52:41.335Z,49.72
2023-02-20T17:55:17.932Z,49.55
2023-02-20T17:57:45.812Z,49.50
2023-02-20T18:00:14.816Z,49.55
2023-02-20T18:02:42.852Z,49.75
2023-02-20T18:05:11.016Z,49.92
2023-02-20T18:07:38.972Z,49.59
2023-02-20T18:10:07.256Z,49.82
2023-02-20T18:12:36.626Z,49.52
2023-02-20T18:15:04.838Z,49.77
2023-02-20T18:17:33.851Z,49.79
2023-02-20T18:20:01.754Z,49.55
2023-02-20T18:22:30.140Z,49.54
2023-02-20T18:24:58.008Z,49.55
2023-02-20T18:27:28.745Z,49.82
2023-02-20T18:29:58.092Z,49.74
2023-02-20T18:32:25.928Z,49.70
2023-02-20T18:34:53.769Z,49.62
2023-02-20T18:37:21.615Z,49.72
2023-02-20T18:39:49.368Z,49.88
2023-02-20T18:42:17.221Z,49.76
2023-02-20T18:44:47.037Z,49.83
2023-02-20T18:47:16.261Z,49.60
2023-02-20T18:49:44.698Z,49.64
2023-02-20T18:52:15.370Z,50.06
2023-02-20T18:54:43.159Z,50.20
2023-02-20T18:57:11.577Z,49.82
2023-02-20T18:59:41.693Z,49.84
2023-02-20T19:02:12.791Z,49.89
2023-02-20T19:04:42.264Z,49.69
2023-02-20T19:07:10.014Z,49.77
2023-02-20T19:09:38.115Z,50.09
2023-02-20T19:12:07.877Z,49.98
2023-02-20T19:14:36.241Z,49.92
2023-02-20T19:17:04.451Z,50.18
2023-02-20T19:19:34.364Z,49.83
2023-02-20T19:22:03.770Z,49.90
2023-02-20T19:24:31.620Z,49.81
2023-02-20T19:26:59.432Z,49.64
2023-02-20T19:29:27.171Z,49.93
2023-02-20T19:31:55.221Z,49.84
2023-02-20T19:34:23.368Z,50.08
2023-02-20T19:36:51.230Z,49.76
2023-02-20T19:39:20.459Z,49.76
2023-02-20T19:41:50.458Z,50.31
2023-02-20T19:44:18.690Z,49.91
2023-02-20T19:46:46.437Z,50.04
2023-02-20T19:49:14.296Z,49.89
2023-02-20T19:51:47.885Z,50.25
2023-02-20T19:54:16.391Z,50.15
2023-02-20T19:56:50.116Z,50.24
2023-02-20T19:59:18.501Z,50.17
2023-02-20T20:01:51.269Z,50.43
2023-02-20T20:04:19.907Z,50.40
2023-02-20T20:06:48.241Z,49.84
2023-02-20T20:09:26.856Z,50.04
2023-02-20T20:12:05.121Z,50.23
2023-02-20T20:14:33.028Z,50.24
2023-02-20T20:17:02.730Z,49.96
2023-02-20T20:19:30.579Z,50.24
2023-02-20T20:21:58.325Z,50.23
2023-02-20T20:24:26.145Z,49.90
2023-02-20T20:26:53.986Z,50.31
2023-02-20T20:29:23.129Z,49.75
2023-02-20T20:31:50.922Z,50.38
2023-02-20T20:34:20.544Z,49.95
2023-02-20T20:36:48.351Z,50.03
2023-02-20T20:39:17.403Z,50.39
2023-02-20T20:41:45.630Z,50.48
2023-02-20T20:44:14.144Z,50.14
2023-02-20T20:46:43.375Z,50.00
2023-02-20T20:49:12.636Z,50.02
2023-02-20T20:51:42.064Z,50.28
2023-02-20T20:54:10.222Z,50.20
2023-02-20T20:56:38.052Z,50.35
2023-02-20T20:59:07.465Z,50.49
2023-02-20T21:01:35.486Z,50.22
2023-02-20T21:04:04.771Z,50.10
2023-02-20T21:06:32.612Z,50.43
2023-02-20T21:09:00.475Z,50.63
2023-02-20T21:11:28.288Z,50.46
2023-02-20T21:13:56.430Z,50.55
2023-02-20T21:16:24.344Z,50.54
2023-02-20T21:18:52.337Z,50.63
2023-02-20T21:21:27.488Z,50.50
2023-02-20T21:23:55.700Z,50.55
2023-02-20T21:26:23.723Z,50.49
2023-02-20T21:28:53.221Z,50.69
2023-02-20T21:31:22.848Z,50.42
2023-02-20T21:33:51.526Z,50.49
2023-02-20T21:36:20.380Z,50.27
2023-02-20T21:38:49.591Z,50.48
2023-02-20T21:41:34.239Z,50.68
2023-02-20T21:44:20.084Z,50.81
2023-02-20T21:46:50.066Z,50.85
2023-02-20T21:49:18.256Z,50.50
2023-02-20T21:51:46.424Z,50.69
2023-02-20T21:54:17.406Z,50.86
2023-02-20T21:56:45.870Z,50.52
2023-02-20T21:59:12.716Z,50.66
2023-02-20T22:01:40.342Z,50.64
2023-02-20T22:04:09.092Z,50.78
2023-02-20T22:06:35.977Z,50.80
2023-02-20T22:09:22.359Z,50.44
2023-02-20T22:12:09.095Z,50.77
2023-02-20T22:14:54.554Z,50.30
2023-02-20T22:17:39.769Z,50.74
2023-02-20T22:20:25.865Z,50.58
2023-02-20T22:23:11.172Z,50.43
2023-02-20T22:25:56.272Z,50.53
2023-02-20T22:28:43.327Z,50.56
2023-02-20T22:31:28.501Z,50.73
2023-02-20T22:34:13.580Z,50.28
2023-02-20T22:36:59.057Z,50.71
2023-02-20T22:39:44.460Z,50.41
2023-02-20T22:42:34.620Z,50.68
2023-02-20T22:45:22.691Z,50.44
2023-02-20T22:48:07.920Z,50.84
2023-02-20T22:50:53.202Z,50.49
2023-02-20T22:53:38.425Z,50.45
2023-02-20T22:56:24.282Z,50.92
2023-02-20T22:59:09.620Z,50.78
2023-02-20T23:01:56.525Z,50.52
2023-02-20T23:04:41.703Z,50.88
2023-02-20T23:07:26.980Z,50.48
2023-02-20T23:10:12.435Z,50.96
2023-02-20T23:12:57.884Z,50.94
2023-02-20T23:15:42.969Z,50.69
2023-02-20T23:18:30.751Z,50.81
2023-02-20T23:21:15.981Z,51.12
2023-02-20T23:24:01.593Z,50.99
2023-02-20T23:26:46.636Z,50.63
2023-02-20T23:29:32.294Z,50.99
2023-02-20T23:32:17.638Z,50.68
2023-02-20T23:35:04.505Z,50.98
2023-02-20T23:37:49.899Z,50.85
2023-02-20T23:40:37.049Z,50.75
2023-02-20T23:43:23.614Z,50.88
2023-02-20T23:46:09.405Z,50.92
2023-02-20T23:48:54.902Z,51.00
2023-02-20T23:51:42.132Z,50.88
2023-02-20T23:54:27.607Z,51.03
2023-02-20T23:57:12.925Z,51.02
2023-02-20T23:59:58.375Z,50.89
